Time;durP1;ratioP1;P1;durP2;ratioP2;P2;SDS_P1;SDS_P2;PMS_P1;PMS_P2;Temp;Humidity;BMP_temperature;BMP_pressure;BME280_temperature;BME280_humidity;BME280_pressure;Samples;Min_cycle;Max_cycle;Signal;HPM_P1;HPM_P2
2022/09/12 00:01:19;;;;;;;5.47;2.60;;;21.30;79.70;;;;;;5064115;28;20238;-75
2022/09/12 00:03:48;;;;;;;9.57;3.13;;;21.30;79.80;;;;;;5065688;28;20657;-75
2022/09/12 00:06:19;;;;;;;6.75;2.83;;;21.30;80.20;;;;;;5067914;28;20248;-75
2022/09/12 00:08:50;;;;;;;5.82;2.40;;;21.20;80.40;;;;;;5061568;28;20624;-76
2022/09/12 00:11:18;;;;;;;7.10;2.80;;;21.20;80.40;;;;;;5058314;28;20202;-76
2022/09/12 00:13:47;;;;;;;4.40;2.45;;;21.20;80.60;;;;;;5062329;28;20652;-76
2022/09/12 00:16:19;;;;;;;9.48;2.85;;;21.10;80.60;;;;;;5066875;28;20229;-75
2022/09/12 00:18:48;;;;;;;5.88;2.13;;;21.10;80.80;;;;;;5065143;28;20186;-75
2022/09/12 00:21:17;;;;;;;4.70;2.20;;;21.20;80.90;;;;;;5070373;28;20268;-75
2022/09/12 00:23:46;;;;;;;4.07;2.53;;;21.20;81.00;;;;;;5067067;28;20236;-75
2022/09/12 00:26:16;;;;;;;5.20;2.33;;;21.20;80.90;;;;;;5066441;28;20238;-74
2022/09/12 00:28:45;;;;;;;6.80;2.10;;;21.20;81.00;;;;;;5059867;28;20309;-74
2022/09/12 00:31:16;;;;;;;5.30;1.87;;;21.20;80.80;;;;;;5064489;28;20193;-73
2022/09/12 00:33:46;;;;;;;11.05;2.45;;;21.20;80.80;;;;;;5069714;28;20222;-73
2022/09/12 00:36:17;;;;;;;7.47;1.98;;;21.20;80.70;;;;;;5067622;28;20238;-73
2022/09/12 00:38:45;;;;;;;3.28;1.73;;;21.20;80.60;;;;;;5063517;28;20222;-74
2022/09/12 00:41:18;;;;;;;5.93;1.80;;;21.20;80.50;;;;;;5066708;28;20218;-73
2022/09/12 00:43:48;;;;;;;5.97;2.22;;;21.20;80.50;;;;;;5063044;28;20298;-76
2022/09/12 00:46:27;;;;;;;5.15;1.85;;;21.20;80.30;;;;;;5065915;28;20745;-76
2022/09/12 00:49:00;;;;;;;4.07;1.90;;;21.30;80.20;;;;;;5066390;28;20290;-75
2022/09/12 00:51:31;;;;;;;3.63;1.80;;;21.20;80.10;;;;;;5064385;28;20289;-75
2022/09/12 00:54:03;;;;;;;5.32;2.17;;;21.20;80.10;;;;;;5069285;28;20194;-75
2022/09/12 00:56:31;;;;;;;4.80;2.15;;;21.20;80.10;;;;;;5066781;28;20274;-74
2022/09/12 00:59:05;;;;;;;8.35;1.90;;;21.20;80.20;;;;;;5066295;28;20691;-74
2022/09/12 01:01:34;;;;;;;7.93;2.27;;;21.10;80.10;;;;;;5059234;28;20648;-76
2022/09/12 01:04:04;;;;;;;5.70;2.13;;;21.10;80.20;;;;;;5067869;28;20214;-76
2022/09/12 01:06:36;;;;;;;3.73;1.80;;;21.10;81.10;;;;;;5065431;28;20233;-76
2022/09/12 01:09:04;;;;;;;3.47;1.58;;;21.10;80.40;;;;;;5065801;28;20564;-76
2022/09/12 01:11:36;;;;;;;4.95;1.98;;;21.10;80.40;;;;;;5059756;28;20218;-76
2022/09/12 01:14:04;;;;;;;4.33;1.77;;;21.10;80.50;;;;;;5059413;28;20190;-76
2022/09/12 01:16:35;;;;;;;2.97;1.67;;;21.00;80.60;;;;;;5064131;28;20282;-76
2022/09/12 01:19:22;;;;;;;4.32;1.67;;;21.00;80.50;;;;;;5065619;28;20198;-75
2022/09/12 01:22:05;;;;;;;5.73;1.60;;;21.00;80.50;;;;;;5064138;28;20268;-76
2022/09/12 01:24:52;;;;;;;4.40;1.60;;;21.00;80.40;;;;;;5068285;28;20712;-76
2022/09/12 01:27:45;;;;;;;4.80;1.95;;;21.00;80.40;;;;;;5066230;28;20390;-75
2022/09/12 01:30:24;;;;;;;7.13;1.87;;;20.90;80.40;;;;;;5063374;28;20639;-77
2022/09/12 01:33:20;;;;;;;2.27;1.33;;;20.90;80.40;;;;;;5065229;28;20693;-76
2022/09/12 01:36:00;;;;;;;3.27;1.60;;;20.90;80.40;;;;;;5068023;28;20248;-76
2022/09/12 01:38:36;;;;;;;3.87;1.60;;;20.90;80.40;;;;;;5062622;28;20202;-76
2022/09/12 01:41:11;;;;;;;3.10;1.50;;;20.80;80.40;;;;;;5063081;28;20243;-75
2022/09/12 01:43:48;;;;;;;3.87;1.30;;;20.80;80.40;;;;;;5064200;28;20591;-75
2022/09/12 01:46:21;;;;;;;4.57;2.07;;;20.80;80.30;;;;;;5066440;28;20187;-75
2022/09/12 01:48:55;;;;;;;4.17;1.60;;;20.80;80.30;;;;;;5069735;28;20189;-77
2022/09/12 01:51:28;;;;;;;2.33;1.37;;;20.80;80.40;;;;;;5065745;28;20181;-75
2022/09/12 01:54:02;;;;;;;7.20;1.60;;;20.80;80.40;;;;;;5060497;28;20646;-75
2022/09/12 01:56:35;;;;;;;4.37;1.77;;;20.80;80.50;;;;;;5063834;28;20216;-74
2022/09/12 01:59:08;;;;;;;6.13;1.53;;;20.80;80.50;;;;;;5064732;28;20186;-75
2022/09/12 02:01:44;;;;;;;3.93;1.60;;;20.80;80.50;;;;;;5063150;28;20206;-75
2022/09/12 02:04:17;;;;;;;4.23;1.40;;;20.80;80.50;;;;;;5059992;28;20198;-75
2022/09/12 02:06:50;;;;;;;4.73;1.57;;;20.80;80.60;;;;;;5055345;28;20274;-75
2022/09/12 02:09:22;;;;;;;2.80;1.33;;;20.80;80.70;;;;;;5061801;28;20655;-75
2022/09/12 02:11:56;;;;;;;3.63;1.40;;;20.70;80.70;;;;;;5061754;28;20194;-78
2022/09/12 02:14:27;;;;;;;2.63;1.40;;;20.70;80.80;;;;;;5061772;28;20254;-76
2022/09/12 02:17:01;;;;;;;6.30;1.70;;;20.70;80.90;;;;;;5048740;28;20277;-75
2022/09/12 02:19:35;;;;;;;4.63;1.60;;;20.60;81.00;;;;;;5059747;28;20261;-76
2022/09/12 02:22:06;;;;;;;4.37;1.60;;;20.60;81.00;;;;;;5062567;28;20206;-75
2022/09/12 02:24:39;;;;;;;5.27;1.60;;;20.60;80.90;;;;;;5063117;28;20221;-75
2022/09/12 02:27:14;;;;;;;3.93;1.30;;;20.60;80.90;;;;;;5058058;28;21481;-75
2022/09/12 02:29:44;;;;;;;4.63;1.40;;;20.60;80.90;;;;;;5065598;28;20276;-75
2022/09/12 02:32:21;;;;;;;4.50;1.77;;;20.60;80.90;;;;;;5064121;28;20233;-74
2022/09/12 02:34:57;;;;;;;4.90;1.83;;;20.50;80.90;;;;;;5067525;28;20596;-75
2022/09/12 02:37:38;;;;;;;2.43;1.43;;;20.50;80.90;;;;;;5065126;28;20186;-75
2022/09/12 02:40:08;;;;;;;3.37;1.30;;;20.50;81.00;;;;;;5066492;28;20655;-75
2022/09/12 02:42:37;;;;;;;4.70;1.57;;;20.50;80.90;;;;;;5068313;28;20210;-75
2022/09/12 02:45:06;;;;;;;2.10;1.33;;;20.50;81.70;;;;;;5070109;28;20182;-76
2022/09/12 02:47:42;;;;;;;2.57;1.10;;;20.50;80.80;;;;;;5064514;28;20190;-75
2022/09/12 02:50:11;;;;;;;3.57;1.50;;;20.50;80.80;;;;;;5067739;28;20194;-75
2022/09/12 02:52:40;;;;;;;5.17;1.63;;;20.50;81.10;;;;;;5070664;28;20248;-74
2022/09/12 02:55:11;;;;;;;4.20;1.40;;;20.50;80.80;;;;;;5062989;28;20533;-75
2022/09/12 02:57:39;;;;;;;4.73;1.70;;;20.50;80.70;;;;;;5066932;28;20187;-76
2022/09/12 03:00:08;;;;;;;4.50;1.60;;;20.50;80.60;;;;;;5071288;28;20232;-75
2022/09/12 03:03:04;;;;;;;5.13;1.87;;;20.40;80.50;;;;;;5066764;28;20257;-75
2022/09/12 03:05:34;;;;;;;4.40;1.70;;;20.40;80.50;;;;;;5066272;28;20275;-75
2022/09/12 03:08:22;;;;;;;6.10;1.77;;;20.40;80.40;;;;;;5066947;28;20598;-75
2022/09/12 03:11:09;;;;;;;5.60;1.60;;;20.40;80.40;;;;;;5066589;28;20305;-77
2022/09/12 03:13:48;;;;;;;5.00;1.80;;;20.40;80.40;;;;;;5070217;28;20225;-75
2022/09/12 03:16:24;;;;;;;3.13;1.70;;;20.40;80.40;;;;;;5064982;28;20202;-74
2022/09/12 03:19:03;;;;;;;3.70;1.50;;;20.40;80.40;;;;;;5062388;28;22414;-75
2022/09/12 03:21:38;;;;;;;3.03;1.40;;;20.30;80.30;;;;;;5060948;28;20268;-75
2022/09/12 03:24:14;;;;;;;9.07;2.40;;;20.30;80.30;;;;;;5064782;28;20186;-75
2022/09/12 03:26:48;;;;;;;4.57;1.80;;;20.30;80.30;;;;;;5067298;28;20229;-75
2022/09/12 03:29:18;;;;;;;2.63;1.60;;;20.30;81.20;;;;;;5065057;28;20239;-75
2022/09/12 03:31:51;;;;;;;3.73;1.80;;;20.20;80.60;;;;;;5066815;28;20190;-76
2022/09/12 03:34:22;;;;;;;2.70;1.43;;;20.20;80.60;;;;;;5064322;28;20232;-75
2022/09/12 03:36:51;;;;;;;7.63;2.13;;;20.10;80.60;;;;;;5068865;28;20226;-74
2022/09/12 03:39:19;;;;;;;7.40;2.27;;;20.10;80.80;;;;;;5068245;28;20209;-75
2022/09/12 03:41:48;;;;;;;5.03;1.80;;;20.10;80.80;;;;;;5063980;28;20215;-75
2022/09/12 03:44:16;;;;;;;5.97;2.00;;;20.10;80.90;;;;;;5066982;28;20186;-74
2022/09/12 03:46:45;;;;;;;5.43;2.80;;;20.00;80.90;;;;;;5069495;28;20229;-74
2022/09/12 03:49:13;;;;;;;5.07;1.97;;;20.00;81.00;;;;;;5057010;28;20198;-76
2022/09/12 03:51:43;;;;;;;3.63;1.97;;;20.00;81.20;;;;;;5065449;28;20274;-75
2022/09/12 03:54:12;;;;;;;8.60;2.20;;;19.90;81.20;;;;;;5068750;28;20827;-75
2022/09/12 03:56:41;;;;;;;5.30;2.00;;;19.90;81.30;;;;;;5070039;28;20225;-76
2022/09/12 03:59:09;;;;;;;7.83;2.20;;;19.90;81.30;;;;;;5068552;28;20619;-75
2022/09/12 04:01:37;;;;;;;11.57;2.40;;;19.90;81.40;;;;;;5067638;28;20226;-75
2022/09/12 04:04:06;;;;;;;5.43;2.07;;;19.80;81.50;;;;;;5064309;28;20736;-78
2022/09/12 04:06:34;;;;;;;5.50;2.20;;;19.80;81.50;;;;;;5063951;28;20294;-75
2022/09/12 04:09:04;;;;;;;5.20;2.17;;;19.80;81.60;;;;;;5064302;28;20221;-76
2022/09/12 04:11:34;;;;;;;7.80;1.90;;;19.80;81.60;;;;;;5068914;28;20218;-75
2022/09/12 04:14:02;;;;;;;7.13;2.30;;;19.80;81.70;;;;;;5061861;28;20187;-75
2022/09/12 04:16:31;;;;;;;11.43;2.80;;;19.70;81.70;;;;;;5058209;28;20278;-74
2022/09/12 04:19:00;;;;;;;8.90;2.23;;;19.80;81.80;;;;;;5065971;28;20201;-75
2022/09/12 04:21:28;;;;;;;9.27;2.50;;;19.70;81.70;;;;;;5062511;28;20834;-76
2022/09/12 04:23:57;;;;;;;6.60;2.13;;;19.80;81.90;;;;;;5067287;28;20207;-75
2022/09/12 04:26:28;;;;;;;4.83;2.17;;;19.70;81.80;;;;;;5065342;28;20249;-75
2022/09/12 04:28:56;;;;;;;3.43;1.87;;;19.70;81.80;;;;;;5044467;28;20597;-74
2022/09/12 04:31:25;;;;;;;4.80;2.00;;;19.70;81.90;;;;;;5047576;28;20203;-75
2022/09/12 04:33:54;;;;;;;11.73;2.17;;;19.70;82.00;;;;;;5041745;28;20222;-74
2022/09/12 04:36:24;;;;;;;11.70;2.47;;;19.70;82.10;;;;;;5045400;28;20668;-74
2022/09/12 04:38:52;;;;;;;8.10;2.03;;;19.70;82.10;;;;;;5047764;28;20671;-76
2022/09/12 04:41:23;;;;;;;4.90;2.13;;;19.70;82.20;;;;;;5046513;28;20223;-74
2022/09/12 04:43:57;;;;;;;5.97;2.47;;;19.70;82.10;;;;;;5044220;28;20292;-76
2022/09/12 04:46:26;;;;;;;5.80;2.30;;;19.70;82.10;;;;;;5040873;28;20187;-75
2022/09/12 04:48:54;;;;;;;7.83;2.23;;;19.70;82.10;;;;;;5040904;28;20200;-74
2022/09/12 04:51:26;;;;;;;5.03;1.70;;;19.70;82.10;;;;;;5036141;28;20199;-75
2022/09/12 04:53:57;;;;;;;6.20;2.23;;;19.70;82.20;;;;;;5042941;28;20219;-76
2022/09/12 04:56:26;;;;;;;6.60;2.47;;;19.70;82.20;;;;;;5052571;28;20191;-75
2022/09/12 04:58:57;;;;;;;5.53;1.80;;;19.70;82.10;;;;;;5045065;28;21338;-74
2022/09/12 05:01:26;;;;;;;7.73;2.03;;;19.70;82.10;;;;;;5042443;28;20223;-75
2022/09/12 05:03:56;;;;;;;6.73;2.13;;;19.70;82.10;;;;;;5043505;28;20764;-74
2022/09/12 05:06:27;;;;;;;9.00;2.53;;;19.70;82.20;;;;;;5041724;28;20245;-76
2022/09/12 05:08:56;;;;;;;6.83;1.90;;;19.70;82.20;;;;;;5045482;28;20191;-74
2022/09/12 05:11:26;;;;;;;5.87;2.20;;;19.70;82.10;;;;;;5056066;28;20237;-75
2022/09/12 05:14:16;;;;;;;6.30;1.93;;;19.80;82.10;;;;;;5044237;28;20400;-74
2022/09/12 05:16:44;;;;;;;7.40;1.97;;;19.80;82.10;;;;;;5046212;28;20207;-74
2022/09/12 05:19:17;;;;;;;9.17;2.10;;;19.80;82.00;;;;;;5048566;28;20256;-75
2022/09/12 05:21:45;;;;;;;2.80;1.60;;;19.90;82.00;;;;;;5044980;28;20234;-74
2022/09/12 05:24:13;;;;;;;4.17;2.00;;;19.90;81.90;;;;;;5041780;28;20253;-76
2022/09/12 05:26:42;;;;;;;12.50;2.10;;;19.90;82.60;;;;;;5042846;28;20192;-75
2022/09/12 05:29:11;;;;;;;9.27;1.73;;;19.90;81.60;;;;;;5061615;28;21146;-76
2022/09/12 05:31:42;;;;;;;8.47;2.13;;;20.00;81.30;;;;;;5066982;28;20241;-75
2022/09/12 05:34:11;;;;;;;10.57;1.90;;;20.00;82.00;;;;;;5059992;28;20709;-76
2022/09/12 05:36:39;;;;;;;11.37;2.53;;;20.00;81.20;;;;;;5065719;28;20240;-76
2022/09/12 05:39:08;;;;;;;11.67;2.17;;;20.10;81.50;;;;;;5070701;28;20244;-74
2022/09/12 05:41:37;;;;;;;7.30;2.47;;;20.10;81.80;;;;;;5060007;28;20183;-74
2022/09/12 05:44:07;;;;;;;11.13;2.77;;;20.10;81.80;;;;;;5064403;28;20306;-74
2022/09/12 05:46:38;;;;;;;9.33;2.70;;;20.20;81.90;;;;;;5061219;28;20229;-76
2022/09/12 05:49:10;;;;;;;14.33;3.07;;;20.10;81.80;;;;;;5066284;28;20260;-75
2022/09/12 05:51:40;;;;;;;8.73;3.57;;;20.20;81.80;;;;;;5071821;28;20217;-75
2022/09/12 05:54:12;;;;;;;9.00;3.40;;;20.20;81.50;;;;;;5067100;28;20631;-75
2022/09/12 05:56:42;;;;;;;11.13;3.57;;;20.20;81.40;;;;;;5066813;28;20249;-75
2022/09/12 05:59:13;;;;;;;9.17;3.67;;;20.30;81.20;;;;;;5067843;28;20209;-74
2022/09/12 06:01:42;;;;;;;11.25;4.07;;;20.40;80.90;;;;;;5072870;28;20557;-75
2022/09/12 06:04:12;;;;;;;12.00;3.80;;;20.40;80.90;;;;;;5070888;28;20230;-76
2022/09/12 06:06:43;;;;;;;11.60;5.03;;;20.40;81.00;;;;;;5074223;28;20221;-75
2022/09/12 06:09:13;;;;;;;10.57;4.03;;;20.50;81.10;;;;;;5071114;28;20281;-75
2022/09/12 06:11:42;;;;;;;9.25;3.25;;;20.50;81.10;;;;;;5076066;28;20252;-75
2022/09/12 06:14:13;;;;;;;6.17;2.77;;;20.50;81.00;;;;;;5074529;28;20194;-75
2022/09/12 06:16:41;;;;;;;8.17;2.70;;;20.60;81.00;;;;;;5071711;28;20615;-76
2022/09/12 06:19:15;;;;;;;8.50;2.53;;;20.70;81.10;;;;;;5074845;28;20194;-75
2022/09/12 06:21:44;;;;;;;7.53;2.17;;;20.70;81.10;;;;;;5076679;28;20564;-75
2022/09/12 06:24:12;;;;;;;7.87;2.47;;;20.70;81.00;;;;;;5073415;28;20262;-75
2022/09/12 06:26:42;;;;;;;3.67;1.80;;;20.80;81.00;;;;;;5074123;28;20226;-76
2022/09/12 06:29:12;;;;;;;8.02;1.35;;;20.90;81.00;;;;;;5075360;28;20247;-75
2022/09/12 06:31:41;;;;;;;4.10;1.38;;;21.00;80.70;;;;;;5076952;28;20245;-75
2022/09/12 06:34:13;;;;;;;5.15;1.30;;;21.10;80.50;;;;;;5076884;28;20247;-75
2022/09/12 06:36:44;;;;;;;8.43;1.90;;;21.20;80.50;;;;;;5076526;28;20187;-75
2022/09/12 06:39:13;;;;;;;6.57;1.88;;;21.30;80.40;;;;;;5072441;28;20241;-76
2022/09/12 06:41:48;;;;;;;7.35;1.48;;;21.40;80.10;;;;;;5071722;28;20226;-77
2022/09/12 06:44:22;;;;;;;11.75;2.25;;;21.50;79.60;;;;;;5059518;28;20670;-76
2022/09/12 06:46:52;;;;;;;4.13;1.23;;;21.60;79.30;;;;;;5070115;28;20231;-75
2022/09/12 06:49:22;;;;;;;2.97;1.58;;;21.70;78.60;;;;;;5067221;28;20195;-75
2022/09/12 06:51:50;;;;;;;2.22;1.30;;;21.70;78.10;;;;;;5077112;28;20229;-76
2022/09/12 06:54:18;;;;;;;2.70;1.15;;;21.70;78.30;;;;;;5074478;28;20210;-75
2022/09/12 06:56:47;;;;;;;2.85;1.00;;;21.80;78.10;;;;;;5076825;28;20190;-76
2022/09/12 06:59:15;;;;;;;4.35;1.60;;;21.90;78.00;;;;;;5075829;28;20547;-75
2022/09/12 07:01:43;;;;;;;2.67;1.00;;;21.90;76.80;;;;;;5073009;28;20229;-76
2022/09/12 07:04:12;;;;;;;4.95;1.20;;;21.90;75.80;;;;;;5067500;28;20250;-77
2022/09/12 07:06:43;;;;;;;4.22;1.02;;;21.90;76.00;;;;;;5068215;28;20689;-75
2022/09/12 07:09:15;;;;;;;3.67;0.82;;;22.00;75.30;;;;;;5073428;28;20194;-76
2022/09/12 07:11:44;;;;;;;4.68;1.00;;;22.00;74.90;;;;;;5050094;28;20198;-75
2022/09/12 07:14:14;;;;;;;6.65;1.05;;;22.00;74.60;;;;;;5076321;28;20216;-76
2022/09/12 07:16:42;;;;;;;2.10;1.02;;;22.00;75.30;;;;;;5064236;28;20694;-75
2022/09/12 07:19:11;;;;;;;3.38;1.10;;;22.00;74.40;;;;;;5067268;28;20199;-75
2022/09/12 07:21:41;;;;;;;8.60;1.33;;;22.10;74.40;;;;;;5073006;28;20265;-75
2022/09/12 07:24:10;;;;;;;4.32;1.08;;;22.10;74.60;;;;;;5071154;28;20693;-76
2022/09/12 07:26:40;;;;;;;4.40;1.00;;;22.20;75.00;;;;;;5071504;28;20201;-75
2022/09/12 07:29:14;;;;;;;9.13;1.25;;;22.30;75.20;;;;;;5072210;28;20190;-75
2022/09/12 07:32:04;;;;;;;3.47;1.23;;;22.30;75.20;;;;;;5070048;28;20197;-75
2022/09/12 07:34:32;;;;;;;1.65;0.73;;;22.40;75.00;;;;;;5072738;28;20206;-75
2022/09/12 07:37:02;;;;;;;3.38;1.00;;;22.50;74.90;;;;;;5073142;28;20217;-75
2022/09/12 07:39:31;;;;;;;3.00;0.60;;;22.60;74.60;;;;;;5071852;28;20199;-75
2022/09/12 07:42:00;;;;;;;2.88;0.98;;;22.60;73.90;;;;;;5072399;28;20720;-75
2022/09/12 07:44:28;;;;;;;1.55;0.60;;;22.70;73.80;;;;;;5071631;28;20218;-75
2022/09/12 07:46:56;;;;;;;2.42;0.80;;;22.80;74.40;;;;;;5071001;28;20190;-75
2022/09/12 07:49:25;;;;;;;3.50;0.80;;;22.80;72.90;;;;;;5068015;28;20273;-76
2022/09/12 07:51:53;;;;;;;4.85;1.20;;;22.90;72.90;;;;;;5069963;28;20234;-77
2022/09/12 07:54:23;;;;;;;5.88;1.10;;;23.00;72.70;;;;;;5062719;28;20565;-76
2022/09/12 07:56:54;;;;;;;1.75;0.70;;;23.00;72.20;;;;;;5070579;28;20206;-79
2022/09/12 07:59:22;;;;;;;3.83;0.90;;;23.10;72.00;;;;;;5071797;28;20244;-75
2022/09/12 08:02:14;;;;;;;4.15;0.80;;;23.10;72.10;;;;;;5070427;28;21097;-76
2022/09/12 08:04:45;;;;;;;1.27;0.57;;;23.20;71.90;;;;;;5068285;28;20675;-76
2022/09/12 08:07:13;;;;;;;1.38;0.50;;;23.20;70.10;;;;;;5068442;28;20190;-78
2022/09/12 08:09:43;;;;;;;2.58;0.95;;;23.20;68.90;;;;;;5065599;28;20606;-77
2022/09/12 08:12:11;;;;;;;2.20;0.88;;;23.30;68.70;;;;;;5072545;28;20230;-77
2022/09/12 08:14:40;;;;;;;1.70;0.60;;;23.30;67.60;;;;;;5069362;28;20259;-77
2022/09/12 08:17:08;;;;;;;2.90;0.73;;;23.30;67.80;;;;;;5070227;28;20216;-76
2022/09/12 08:19:37;;;;;;;1.45;0.57;;;23.40;67.70;;;;;;5066943;28;20252;-77
2022/09/12 08:22:05;;;;;;;0.80;0.40;;;23.50;68.10;;;;;;5069622;28;20728;-76
2022/09/12 08:24:33;;;;;;;1.30;0.60;;;23.60;67.60;;;;;;5068584;28;20229;-75
2022/09/12 08:27:03;;;;;;;1.35;0.47;;;23.60;67.50;;;;;;5067038;28;20260;-76
2022/09/12 08:29:31;;;;;;;2.70;0.60;;;23.70;66.80;;;;;;5068249;28;20233;-76
2022/09/12 08:32:00;;;;;;;0.65;0.50;;;23.70;66.30;;;;;;5071339;28;20218;-76
2022/09/12 08:34:28;;;;;;;1.05;0.57;;;23.70;65.40;;;;;;5070135;28;20248;-74
2022/09/12 08:36:56;;;;;;;1.10;0.60;;;23.80;64.70;;;;;;5071464;28;20264;-75
2022/09/12 08:39:25;;;;;;;1.27;0.50;;;23.80;64.90;;;;;;5072214;28;20187;-75
2022/09/12 08:42:00;;;;;;;1.05;0.50;;;23.90;64.90;;;;;;5068803;28;20273;-75
2022/09/12 08:44:57;;;;;;;0.90;0.50;;;23.90;64.60;;;;;;5070288;28;20194;-75
2022/09/12 08:47:30;;;;;;;1.10;0.50;;;24.00;64.70;;;;;;5062762;28;20183;-75
2022/09/12 08:50:11;;;;;;;2.50;0.68;;;24.10;64.50;;;;;;5067749;28;20336;-75
2022/09/12 08:52:48;;;;;;;3.42;0.80;;;24.10;64.30;;;;;;5067497;28;20187;-75
2022/09/12 08:55:31;;;;;;;3.67;0.63;;;24.20;64.10;;;;;;5063570;28;20221;-75
2022/09/12 08:58:00;;;;;;;1.80;0.60;;;24.30;64.50;;;;;;5069983;28;20190;-74
2022/09/12 09:00:39;;;;;;;2.70;0.90;;;24.30;63.60;;;;;;5068988;28;20187;-75
2022/09/12 09:03:38;;;;;;;1.30;0.60;;;24.30;62.70;;;;;;5067094;28;20194;-74
2022/09/12 09:06:15;;;;;;;0.57;0.40;;;24.40;62.00;;;;;;5062390;28;20230;-74
2022/09/12 09:08:57;;;;;;;2.35;0.70;;;24.40;61.60;;;;;;5067415;28;20210;-76
2022/09/12 09:11:40;;;;;;;3.95;0.60;;;24.50;61.60;;;;;;5069410;28;20305;-74
2022/09/12 09:14:48;;;;;;;2.92;0.50;;;24.50;61.80;;;;;;5065538;28;20226;-75
2022/09/12 09:17:25;;;;;;;2.42;0.65;;;24.60;62.10;;;;;;5068164;28;20218;-75
2022/09/12 09:20:02;;;;;;;2.05;1.13;;;24.60;61.90;;;;;;5066594;28;20229;-75
2022/09/12 09:22:43;;;;;;;2.95;1.08;;;24.70;61.90;;;;;;5068590;28;20187;-75
2022/09/12 09:25:17;;;;;;;2.08;0.60;;;24.70;61.10;;;;;;5066282;28;20276;-75
2022/09/12 09:27:57;;;;;;;2.83;0.57;;;24.80;60.90;;;;;;5067111;28;20222;-74
2022/09/12 09:30:25;;;;;;;3.45;0.60;;;24.80;61.30;;;;;;5061501;28;20186;-78
2022/09/12 09:32:57;;;;;;;1.75;0.50;;;24.90;61.00;;;;;;5062122;28;20234;-76
2022/09/12 09:35:39;;;;;;;0.45;0.40;;;24.90;60.00;;;;;;5058035;28;20226;-74
2022/09/12 09:38:22;;;;;;;0.73;0.50;;;25.00;58.40;;;;;;5065832;28;20187;-75
2022/09/12 09:41:03;;;;;;;3.92;0.30;;;25.00;58.90;;;;;;5071659;28;20199;-75
2022/09/12 09:43:31;;;;;;;3.47;0.45;;;25.10;58.20;;;;;;5063885;28;20225;-75
2022/09/12 09:45:59;;;;;;;1.45;0.50;;;25.10;58.30;;;;;;5067147;28;20734;-75
2022/09/12 09:48:32;;;;;;;1.38;0.50;;;25.20;58.60;;;;;;5063788;28;20199;-75
2022/09/12 09:51:02;;;;;;;0.93;0.40;;;25.20;58.40;;;;;;5064523;28;20195;-73
2022/09/12 09:53:37;;;;;;;1.27;0.40;;;25.30;58.50;;;;;;5068104;28;20212;-75
2022/09/12 09:56:09;;;;;;;2.78;0.60;;;25.40;58.70;;;;;;5061267;28;20282;-75
2022/09/12 09:58:39;;;;;;;2.17;0.60;;;25.40;58.80;;;;;;5068788;28;20195;-75
2022/09/12 10:01:14;;;;;;;1.33;0.50;;;25.50;58.60;;;;;;5064794;28;20195;-75
2022/09/12 10:03:51;;;;;;;1.23;0.50;;;25.50;58.50;;;;;;5065675;28;20186;-76
2022/09/12 10:06:31;;;;;;;3.95;0.57;;;25.60;58.50;;;;;;5064006;28;20308;-77
2022/09/12 10:09:18;;;;;;;1.17;0.50;;;25.70;58.20;;;;;;5062067;28;20202;-74
2022/09/12 10:11:48;;;;;;;0.63;0.45;;;25.70;58.00;;;;;;5052106;28;20194;-76
2022/09/12 10:14:38;;;;;;;1.33;0.60;;;25.80;57.30;;;;;;5058529;28;20213;-74
2022/09/12 10:17:28;;;;;;;1.75;0.68;;;25.90;56.50;;;;;;5065623;28;20214;-74
2022/09/12 10:20:03;;;;;;;0.70;0.47;;;25.90;56.30;;;;;;5062995;28;20271;-75
2022/09/12 10:22:50;;;;;;;1.85;0.45;;;26.00;56.50;;;;;;5062802;28;20647;-74
2022/09/12 10:25:20;;;;;;;2.42;0.40;;;26.10;55.40;;;;;;5064744;28;20198;-75
2022/09/12 10:27:56;;;;;;;1.67;0.70;;;26.10;55.70;;;;;;5065969;28;20237;-75
2022/09/12 10:30:27;;;;;;;1.90;0.35;;;26.10;55.90;;;;;;5068210;28;20194;-74
2022/09/12 10:33:05;;;;;;;1.05;0.50;;;26.10;55.60;;;;;;5065474;28;20195;-74
2022/09/12 10:35:47;;;;;;;3.25;0.47;;;26.10;55.60;;;;;;5065617;28;20224;-74
2022/09/12 10:38:22;;;;;;;1.70;0.50;;;26.30;55.80;;;;;;5065400;28;20190;-74
2022/09/12 10:40:58;;;;;;;1.08;0.50;;;26.30;55.40;;;;;;5063005;28;20230;-75
2022/09/12 10:43:34;;;;;;;2.47;0.50;;;26.30;54.80;;;;;;5066038;28;20513;-77
2022/09/12 10:46:21;;;;;;;2.08;0.47;;;26.50;54.10;;;;;;5058259;28;20214;-75
2022/09/12 10:48:51;;;;;;;1.45;0.65;;;26.50;54.70;;;;;;5066269;28;20202;-75
2022/09/12 10:51:29;;;;;;;1.35;0.70;;;26.60;53.80;;;;;;5072528;28;20186;-75
2022/09/12 10:53:59;;;;;;;2.20;0.70;;;26.60;54.30;;;;;;5072622;28;20589;-74
2022/09/12 10:56:31;;;;;;;0.47;0.32;;;26.60;54.50;;;;;;5069302;28;20881;-74
2022/09/12 10:59:23;;;;;;;1.13;0.43;;;26.60;54.40;;;;;;5070567;28;20186;-74
2022/09/12 11:01:56;;;;;;;4.18;0.70;;;26.60;53.20;;;;;;5063553;28;20248;-74
2022/09/12 11:04:39;;;;;;;1.20;0.40;;;26.60;52.80;;;;;;5067606;28;20218;-75
2022/09/12 11:07:37;;;;;;;1.80;0.40;;;26.60;53.10;;;;;;5070512;28;20267;-75
2022/09/12 11:10:21;;;;;;;3.20;0.50;;;26.70;52.90;;;;;;5065652;28;20206;-74
2022/09/12 11:12:55;;;;;;;0.73;0.40;;;26.70;53.30;;;;;;5067476;28;20232;-75
2022/09/12 11:15:37;;;;;;;1.25;0.47;;;26.60;50.90;;;;;;5069130;28;20213;-75
2022/09/12 11:18:17;;;;;;;3.80;0.57;;;26.70;51.20;;;;;;5070449;28;20233;-73
2022/09/12 11:21:08;;;;;;;3.75;0.70;;;26.70;51.70;;;;;;5067801;28;20186;-74
2022/09/12 11:24:02;;;;;;;2.88;0.60;;;26.80;51.50;;;;;;5061708;28;20244;-74
2022/09/12 11:26:42;;;;;;;2.22;0.65;;;26.80;52.10;;;;;;5067916;28;20210;-73
2022/09/12 11:29:20;;;;;;;0.90;0.60;;;26.90;52.20;;;;;;5065104;28;20218;-75
2022/09/12 11:32:10;;;;;;;3.60;0.50;;;27.00;51.70;;;;;;5071178;28;20263;-75
2022/09/12 11:34:52;;;;;;;2.78;0.38;;;27.10;51.20;;;;;;5064320;28;20222;-75
2022/09/12 11:37:42;;;;;;;0.45;0.35;;;27.10;51.00;;;;;;5068403;28;20194;-78
2022/09/12 11:40:27;;;;;;;1.48;0.40;;;27.20;50.90;;;;;;5071488;28;20226;-75
2022/09/12 11:43:01;;;;;;;0.30;0.30;;;27.20;50.30;;;;;;5067199;28;20204;-75
2022/09/12 11:45:36;;;;;;;1.33;0.50;;;27.20;50.40;;;;;;5069368;28;20182;-75
2022/09/12 11:48:10;;;;;;;0.53;0.33;;;27.20;50.00;;;;;;5066720;28;20447;-75
2022/09/12 11:50:38;;;;;;;1.00;0.40;;;27.30;49.20;;;;;;5068701;28;20438;-75
2022/09/12 11:53:17;;;;;;;0.95;0.30;;;27.20;49.70;;;;;;5067167;28;20226;-75
2022/09/12 11:55:55;;;;;;;0.68;0.40;;;27.30;50.20;;;;;;5068583;28;20716;-76
2022/09/12 11:58:28;;;;;;;0.57;0.30;;;27.30;49.70;;;;;;5068040;28;20190;-76
2022/09/12 12:01:03;;;;;;;2.20;0.30;;;27.30;49.90;;;;;;5064290;28;20869;-76
2022/09/12 12:03:37;;;;;;;0.40;0.40;;;27.30;49.40;;;;;;5067578;28;20182;-76
2022/09/12 12:06:11;;;;;;;2.38;0.40;;;27.30;49.10;;;;;;5067495;28;20191;-74
2022/09/12 12:08:41;;;;;;;0.65;0.30;;;27.30;48.90;;;;;;5069232;28;20222;-75
2022/09/12 12:11:13;;;;;;;2.83;0.40;;;27.30;48.60;;;;;;5062240;28;20222;-76
2022/09/12 12:13:48;;;;;;;4.38;0.57;;;27.40;48.40;;;;;;5068290;28;20218;-75
2022/09/12 12:16:22;;;;;;;0.35;0.30;;;27.40;47.90;;;;;;5068157;28;20210;-75
2022/09/12 12:18:55;;;;;;;0.80;0.45;;;27.50;47.80;;;;;;5069565;28;20195;-76
2022/09/12 12:21:39;;;;;;;0.70;0.38;;;27.60;47.60;;;;;;5063598;28;20655;-75
2022/09/12 12:24:19;;;;;;;1.77;0.30;;;27.60;47.60;;;;;;5067946;28;20210;-75
2022/09/12 12:27:00;;;;;;;2.92;0.40;;;27.60;47.60;;;;;;5064873;28;20302;-79
2022/09/12 12:29:53;;;;;;;1.73;0.38;;;27.60;47.70;;;;;;5062246;28;20240;-75
2022/09/12 12:32:25;;;;;;;0.45;0.35;;;27.50;48.50;;;;;;5044416;28;20202;-76
2022/09/12 12:35:37;;;;;;;0.70;0.50;;;27.60;48.50;;;;;;5069935;28;20240;-76
2022/09/12 12:38:27;;;;;;;0.60;0.35;;;27.60;48.70;;;;;;5064772;28;20231;-75
2022/09/12 12:41:37;;;;;;;1.75;0.40;;;27.50;48.30;;;;;;5068194;28;20309;-76
2022/09/12 12:44:48;;;;;;;1.10;0.50;;;27.50;48.50;;;;;;5077078;28;20248;-75
2022/09/12 12:47:20;;;;;;;2.40;0.65;;;27.50;49.20;;;;;;5066793;28;20251;-77
2022/09/12 12:49:55;;;;;;;1.85;0.40;;;27.40;49.10;;;;;;5061666;28;20278;-76
2022/09/12 12:52:25;;;;;;;1.98;0.40;;;27.30;50.50;;;;;;5065365;28;20220;-77
2022/09/12 12:54:57;;;;;;;0.32;0.30;;;27.30;51.50;;;;;;5058490;28;20310;-75
2022/09/12 12:57:46;;;;;;;2.13;0.50;;;27.10;52.60;;;;;;5062280;28;20604;-77
2022/09/12 13:00:32;;;;;;;6.80;0.65;;;27.10;54.40;;;;;;5064340;28;20281;-75
2022/09/12 13:03:05;;;;;;;6.53;0.68;;;27.00;55.70;;;;;;5062473;28;20221;-75
2022/09/12 13:05:40;;;;;;;2.25;0.40;;;26.80;56.40;;;;;;5065762;28;20221;-74
2022/09/12 13:08:11;;;;;;;3.38;0.40;;;26.80;57.00;;;;;;5060711;28;20256;-74
2022/09/12 13:10:50;;;;;;;1.70;0.50;;;26.80;57.60;;;;;;5067510;28;20204;-76
2022/09/12 13:13:31;;;;;;;1.38;0.40;;;26.60;57.80;;;;;;5064462;28;20186;-75
2022/09/12 13:16:03;;;;;;;3.58;0.43;;;26.50;59.10;;;;;;5066832;28;20229;-75
2022/09/12 13:18:41;;;;;;;1.27;0.47;;;26.50;58.90;;;;;;5070198;28;20197;-76
2022/09/12 13:21:13;;;;;;;4.93;0.80;;;26.40;59.10;;;;;;5068984;28;20194;-75